sensor_id;sensor_type;location;lat;lon;timestamp;P1;durP1;ratioP1;P2;durP2;ratioP2
15665;SDS011;20725;51.196;3.510;2023-03-31T00:02:57;10.97;;;3.20;;
15665;SDS011;20725;51.196;3.510;2023-03-31T00:05:25;21.40;;;4.67;;
15665;SDS011;20725;51.196;3.510;2023-03-31T00:07:54;14.17;;;3.73;;
15665;SDS011;20725;51.196;3.510;2023-03-31T00:10:25;18.20;;;4.43;;
15665;SDS011;20725;51.196;3.510;2023-03-31T00:12:52;12.63;;;3.63;;
15665;SDS011;20725;51.196;3.510;2023-03-31T00:15:19;14.97;;;3.60;;
15665;SDS011;20725;51.196;3.510;2023-03-31T00:17:47;18.97;;;3.63;;
15665;SDS011;20725;51.196;3.510;2023-03-31T00:20:14;18.40;;;3.47;;
15665;SDS011;20725;51.196;3.510;2023-03-31T00:22:41;11.17;;;3.57;;
15665;SDS011;20725;51.196;3.510;2023-03-31T00:25:12;13.10;;;3.77;;
15665;SDS011;20725;51.196;3.510;2023-03-31T00:27:40;13.80;;;3.80;;
15665;SDS011;20725;51.196;3.510;2023-03-31T00:30:08;12.27;;;3.20;;
15665;SDS011;20725;51.196;3.510;2023-03-31T00:32:36;9.63;;;2.90;;
15665;SDS011;20725;51.196;3.510;2023-03-31T00:35:04;11.63;;;3.57;;
15665;SDS011;20725;51.196;3.510;2023-03-31T00:37:31;12.43;;;2.97;;
15665;SDS011;20725;51.196;3.510;2023-03-31T00:39:58;12.47;;;3.10;;
15665;SDS011;20725;51.196;3.510;2023-03-31T00:42:27;19.77;;;3.93;;
15665;SDS011;20725;51.196;3.510;2023-03-31T00:47:40;17.17;;;3.23;;
15665;SDS011;20725;51.196;3.510;2023-03-31T00:50:12;15.93;;;3.83;;
15665;SDS011;20725;51.196;3.510;2023-03-31T00:52:42;11.33;;;2.50;;
15665;SDS011;20725;51.196;3.510;2023-03-31T00:55:13;12.70;;;2.97;;
15665;SDS011;20725;51.196;3.510;2023-03-31T00:57:43;14.77;;;2.90;;
15665;SDS011;20725;51.196;3.510;2023-03-31T01:05:18;9.37;;;2.33;;
15665;SDS011;20725;51.196;3.510;2023-03-31T01:07:47;10.93;;;2.70;;
15665;SDS011;20725;51.196;3.510;2023-03-31T01:10:15;9.67;;;3.00;;
15665;SDS011;20725;51.196;3.510;2023-03-31T01:12:44;13.43;;;3.13;;
15665;SDS011;20725;51.196;3.510;2023-03-31T01:15:13;11.27;;;2.50;;
15665;SDS011;20725;51.196;3.510;2023-03-31T01:17:40;9.30;;;2.60;;
15665;SDS011;20725;51.196;3.510;2023-03-31T01:20:09;17.30;;;3.87;;
15665;SDS011;20725;51.196;3.510;2023-03-31T01:22:51;17.90;;;3.60;;
15665;SDS011;20725;51.196;3.510;2023-03-31T01:25:32;16.10;;;3.33;;
15665;SDS011;20725;51.196;3.510;2023-03-31T01:28:13;11.50;;;3.83;;
15665;SDS011;20725;51.196;3.510;2023-03-31T01:33:33;13.77;;;3.57;;
15665;SDS011;20725;51.196;3.510;2023-03-31T01:36:07;10.53;;;2.80;;
15665;SDS011;20725;51.196;3.510;2023-03-31T01:41:33;8.37;;;2.93;;
15665;SDS011;20725;51.196;3.510;2023-03-31T01:44:05;5.57;;;2.40;;
15665;SDS011;20725;51.196;3.510;2023-03-31T01:46:35;22.63;;;3.67;;
15665;SDS011;20725;51.196;3.510;2023-03-31T01:49:06;11.90;;;2.87;;
15665;SDS011;20725;51.196;3.510;2023-03-31T01:51:36;17.13;;;3.10;;
15665;SDS011;20725;51.196;3.510;2023-03-31T01:54:07;12.47;;;3.27;;
15665;SDS011;20725;51.196;3.510;2023-03-31T01:56:38;13.90;;;3.10;;
15665;SDS011;20725;51.196;3.510;2023-03-31T01:59:08;13.10;;;3.20;;
15665;SDS011;20725;51.196;3.510;2023-03-31T02:01:37;14.17;;;3.13;;
15665;SDS011;20725;51.196;3.510;2023-03-31T02:04:06;9.53;;;2.50;;
15665;SDS011;20725;51.196;3.510;2023-03-31T02:06:35;11.37;;;2.50;;
15665;SDS011;20725;51.196;3.510;2023-03-31T02:09:05;16.97;;;3.40;;
15665;SDS011;20725;51.196;3.510;2023-03-31T02:11:35;16.87;;;3.60;;
15665;SDS011;20725;51.196;3.510;2023-03-31T02:14:07;8.80;;;2.90;;
15665;SDS011;20725;51.196;3.510;2023-03-31T02:16:36;11.10;;;2.87;;
15665;SDS011;20725;51.196;3.510;2023-03-31T02:19:06;13.47;;;3.40;;
15665;SDS011;20725;51.196;3.510;2023-03-31T02:21:38;14.70;;;3.97;;
15665;SDS011;20725;51.196;3.510;2023-03-31T02:24:06;7.07;;;2.87;;
15665;SDS011;20725;51.196;3.510;2023-03-31T02:26:34;6.57;;;2.50;;
15665;SDS011;20725;51.196;3.510;2023-03-31T02:29:05;8.70;;;3.67;;
15665;SDS011;20725;51.196;3.510;2023-03-31T02:31:35;9.80;;;2.97;;
15665;SDS011;20725;51.196;3.510;2023-03-31T02:34:04;4.67;;;2.23;;
15665;SDS011;20725;51.196;3.510;2023-03-31T02:36:32;13.40;;;3.40;;
15665;SDS011;20725;51.196;3.510;2023-03-31T02:39:01;10.03;;;3.50;;
15665;SDS011;20725;51.196;3.510;2023-03-31T02:41:29;7.43;;;2.83;;
15665;SDS011;20725;51.196;3.510;2023-03-31T02:43:56;6.10;;;2.73;;
15665;SDS011;20725;51.196;3.510;2023-03-31T02:46:25;4.23;;;2.00;;
15665;SDS011;20725;51.196;3.510;2023-03-31T02:48:53;7.20;;;2.87;;
15665;SDS011;20725;51.196;3.510;2023-03-31T02:56:56;6.70;;;2.30;;
15665;SDS011;20725;51.196;3.510;2023-03-31T02:59:30;10.67;;;2.93;;
15665;SDS011;20725;51.196;3.510;2023-03-31T03:02:05;8.23;;;2.63;;
15665;SDS011;20725;51.196;3.510;2023-03-31T03:04:44;8.83;;;2.37;;
15665;SDS011;20725;51.196;3.510;2023-03-31T03:07:16;6.97;;;2.67;;
15665;SDS011;20725;51.196;3.510;2023-03-31T03:09:48;5.33;;;2.13;;
15665;SDS011;20725;51.196;3.510;2023-03-31T03:12:20;7.03;;;2.80;;
15665;SDS011;20725;51.196;3.510;2023-03-31T03:14:49;9.83;;;2.73;;
15665;SDS011;20725;51.196;3.510;2023-03-31T03:17:21;6.23;;;2.50;;
15665;SDS011;20725;51.196;3.510;2023-03-31T03:19:51;6.53;;;2.80;;
15665;SDS011;20725;51.196;3.510;2023-03-31T03:22:19;7.07;;;2.47;;
15665;SDS011;20725;51.196;3.510;2023-03-31T03:24:47;4.60;;;1.60;;
15665;SDS011;20725;51.196;3.510;2023-03-31T03:27:14;6.10;;;1.80;;
15665;SDS011;20725;51.196;3.510;2023-03-31T03:29:42;4.37;;;1.70;;
15665;SDS011;20725;51.196;3.510;2023-03-31T03:32:09;2.97;;;1.83;;
15665;SDS011;20725;51.196;3.510;2023-03-31T03:34:38;6.27;;;2.20;;
15665;SDS011;20725;51.196;3.510;2023-03-31T03:37:05;3.37;;;1.63;;
15665;SDS011;20725;51.196;3.510;2023-03-31T03:39:33;4.07;;;1.40;;
15665;SDS011;20725;51.196;3.510;2023-03-31T03:42:00;4.93;;;2.03;;
15665;SDS011;20725;51.196;3.510;2023-03-31T03:44:27;3.40;;;1.63;;
15665;SDS011;20725;51.196;3.510;2023-03-31T03:46:55;1.03;;;1.03;;
15665;SDS011;20725;51.196;3.510;2023-03-31T03:49:22;3.17;;;1.23;;
15665;SDS011;20725;51.196;3.510;2023-03-31T03:51:50;2.13;;;1.40;;
15665;SDS011;20725;51.196;3.510;2023-03-31T03:54:17;6.53;;;1.33;;
15665;SDS011;20725;51.196;3.510;2023-03-31T03:56:45;2.93;;;1.40;;
15665;SDS011;20725;51.196;3.510;2023-03-31T03:59:12;1.30;;;1.20;;
15665;SDS011;20725;51.196;3.510;2023-03-31T04:01:39;2.97;;;1.37;;
15665;SDS011;20725;51.196;3.510;2023-03-31T04:04:06;3.07;;;1.40;;
15665;SDS011;20725;51.196;3.510;2023-03-31T04:06:33;1.47;;;1.03;;
15665;SDS011;20725;51.196;3.510;2023-03-31T04:09:02;1.10;;;1.00;;
15665;SDS011;20725;51.196;3.510;2023-03-31T04:11:30;2.00;;;1.10;;
15665;SDS011;20725;51.196;3.510;2023-03-31T04:13:57;3.53;;;1.30;;
15665;SDS011;20725;51.196;3.510;2023-03-31T04:16:24;2.33;;;1.10;;
15665;SDS011;20725;51.196;3.510;2023-03-31T04:18:52;2.17;;;1.30;;
15665;SDS011;20725;51.196;3.510;2023-03-31T04:21:23;2.27;;;1.17;;
15665;SDS011;20725;51.196;3.510;2023-03-31T04:23:51;2.93;;;1.50;;
15665;SDS011;20725;51.196;3.510;2023-03-31T04:26:27;5.13;;;1.70;;
15665;SDS011;20725;51.196;3.510;2023-03-31T04:29:07;3.80;;;1.80;;
15665;SDS011;20725;51.196;3.510;2023-03-31T04:31:34;3.87;;;1.90;;
15665;SDS011;20725;51.196;3.510;2023-03-31T04:34:06;3.97;;;1.60;;
15665;SDS011;20725;51.196;3.510;2023-03-31T04:36:37;5.40;;;2.27;;
15665;SDS011;20725;51.196;3.510;2023-03-31T04:39:06;3.40;;;2.70;;
15665;SDS011;20725;51.196;3.510;2023-03-31T04:41:36;6.10;;;2.83;;
15665;SDS011;20725;51.196;3.510;2023-03-31T04:44:03;2.73;;;2.00;;
15665;SDS011;20725;51.196;3.510;2023-03-31T04:46:31;2.67;;;1.90;;
15665;SDS011;20725;51.196;3.510;2023-03-31T04:48:58;3.20;;;1.60;;
15665;SDS011;20725;51.196;3.510;2023-03-31T04:51:27;3.13;;;1.60;;
15665;SDS011;20725;51.196;3.510;2023-03-31T04:53:54;3.37;;;1.00;;
15665;SDS011;20725;51.196;3.510;2023-03-31T04:56:21;1.50;;;1.40;;
15665;SDS011;20725;51.196;3.510;2023-03-31T04:58:50;3.40;;;1.10;;
15665;SDS011;20725;51.196;3.510;2023-03-31T05:01:17;2.13;;;1.10;;
15665;SDS011;20725;51.196;3.510;2023-03-31T05:03:44;2.80;;;1.40;;
15665;SDS011;20725;51.196;3.510;2023-03-31T05:06:12;1.63;;;1.53;;
15665;SDS011;20725;51.196;3.510;2023-03-31T05:08:40;3.47;;;1.70;;
15665;SDS011;20725;51.196;3.510;2023-03-31T05:11:07;5.63;;;2.00;;
15665;SDS011;20725;51.196;3.510;2023-03-31T05:13:35;2.63;;;1.80;;
15665;SDS011;20725;51.196;3.510;2023-03-31T05:16:07;3.27;;;1.53;;
15665;SDS011;20725;51.196;3.510;2023-03-31T05:18:36;1.87;;;1.50;;
15665;SDS011;20725;51.196;3.510;2023-03-31T05:21:09;3.27;;;1.63;;
15665;SDS011;20725;51.196;3.510;2023-03-31T05:23:36;2.70;;;1.70;;
15665;SDS011;20725;51.196;3.510;2023-03-31T05:26:03;11.57;;;2.13;;
15665;SDS011;20725;51.196;3.510;2023-03-31T05:28:32;3.80;;;1.77;;
15665;SDS011;20725;51.196;3.510;2023-03-31T05:31:00;6.10;;;1.83;;
15665;SDS011;20725;51.196;3.510;2023-03-31T05:33:29;4.73;;;2.57;;
15665;SDS011;20725;51.196;3.510;2023-03-31T05:35:57;4.97;;;2.23;;
15665;SDS011;20725;51.196;3.510;2023-03-31T05:38:25;5.67;;;2.20;;
15665;SDS011;20725;51.196;3.510;2023-03-31T05:40:55;6.10;;;2.40;;
15665;SDS011;20725;51.196;3.510;2023-03-31T05:43:22;5.07;;;2.37;;
15665;SDS011;20725;51.196;3.510;2023-03-31T05:45:50;14.60;;;4.07;;
15665;SDS011;20725;51.196;3.510;2023-03-31T05:48:17;8.97;;;2.67;;
15665;SDS011;20725;51.196;3.510;2023-03-31T05:50:46;6.53;;;2.20;;
15665;SDS011;20725;51.196;3.510;2023-03-31T05:53:14;9.73;;;3.07;;
15665;SDS011;20725;51.196;3.510;2023-03-31T05:55:41;8.80;;;2.80;;
15665;SDS011;20725;51.196;3.510;2023-03-31T05:58:08;9.07;;;2.93;;
15665;SDS011;20725;51.196;3.510;2023-03-31T06:00:36;8.87;;;3.20;;
15665;SDS011;20725;51.196;3.510;2023-03-31T06:03:04;12.67;;;3.43;;
15665;SDS011;20725;51.196;3.510;2023-03-31T06:05:32;10.07;;;3.10;;
15665;SDS011;20725;51.196;3.510;2023-03-31T06:08:01;12.53;;;3.23;;
15665;SDS011;20725;51.196;3.510;2023-03-31T06:10:28;14.40;;;4.00;;
15665;SDS011;20725;51.196;3.510;2023-03-31T06:12:56;18.90;;;3.60;;
15665;SDS011;20725;51.196;3.510;2023-03-31T06:15:23;15.27;;;3.77;;
15665;SDS011;20725;51.196;3.510;2023-03-31T06:17:52;10.43;;;3.17;;
15665;SDS011;20725;51.196;3.510;2023-03-31T06:20:19;10.07;;;3.33;;
15665;SDS011;20725;51.196;3.510;2023-03-31T06:22:47;19.33;;;4.60;;
15665;SDS011;20725;51.196;3.510;2023-03-31T06:25:16;18.17;;;4.50;;
15665;SDS011;20725;51.196;3.510;2023-03-31T06:27:44;9.90;;;3.57;;
15665;SDS011;20725;51.196;3.510;2023-03-31T06:30:11;23.43;;;4.10;;
15665;SDS011;20725;51.196;3.510;2023-03-31T06:32:39;17.93;;;4.57;;
15665;SDS011;20725;51.196;3.510;2023-03-31T06:35:06;19.90;;;4.73;;
15665;SDS011;20725;51.196;3.510;2023-03-31T06:37:34;16.20;;;3.83;;
15665;SDS011;20725;51.196;3.510;2023-03-31T06:40:01;14.80;;;3.97;;
15665;SDS011;20725;51.196;3.510;2023-03-31T06:42:30;24.43;;;5.67;;
15665;SDS011;20725;51.196;3.510;2023-03-31T06:44:58;19.17;;;4.23;;
15665;SDS011;20725;51.196;3.510;2023-03-31T06:47:26;13.47;;;3.97;;
15665;SDS011;20725;51.196;3.510;2023-03-31T06:49:59;15.47;;;3.87;;
15665;SDS011;20725;51.196;3.510;2023-03-31T06:52:26;20.43;;;4.17;;
15665;SDS011;20725;51.196;3.510;2023-03-31T06:54:53;19.53;;;5.10;;
15665;SDS011;20725;51.196;3.510;2023-03-31T06:57:20;14.83;;;4.30;;
15665;SDS011;20725;51.196;3.510;2023-03-31T06:59:49;11.70;;;4.03;;
15665;SDS011;20725;51.196;3.510;2023-03-31T07:02:17;11.83;;;3.50;;
15665;SDS011;20725;51.196;3.510;2023-03-31T07:04:44;18.43;;;4.37;;
15665;SDS011;20725;51.196;3.510;2023-03-31T07:07:12;21.80;;;4.90;;
15665;SDS011;20725;51.196;3.510;2023-03-31T07:09:39;11.53;;;3.30;;
15665;SDS011;20725;51.196;3.510;2023-03-31T07:12:07;17.20;;;4.27;;
15665;SDS011;20725;51.196;3.510;2023-03-31T07:14:34;15.80;;;4.30;;
15665;SDS011;20725;51.196;3.510;2023-03-31T07:17:03;11.53;;;3.20;;
15665;SDS011;20725;51.196;3.510;2023-03-31T07:19:30;21.77;;;4.73;;
15665;SDS011;20725;51.196;3.510;2023-03-31T07:22:01;17.37;;;4.80;;
15665;SDS011;20725;51.196;3.510;2023-03-31T07:24:30;15.00;;;3.87;;
15665;SDS011;20725;51.196;3.510;2023-03-31T07:26:57;12.43;;;3.80;;
15665;SDS011;20725;51.196;3.510;2023-03-31T07:29:24;15.13;;;3.43;;
15665;SDS011;20725;51.196;3.510;2023-03-31T07:31:52;12.20;;;4.07;;
15665;SDS011;20725;51.196;3.510;2023-03-31T07:34:21;19.97;;;4.93;;
15665;SDS011;20725;51.196;3.510;2023-03-31T07:36:48;20.63;;;4.60;;
15665;SDS011;20725;51.196;3.510;2023-03-31T07:39:15;16.83;;;4.17;;
15665;SDS011;20725;51.196;3.510;2023-03-31T07:41:42;14.23;;;3.73;;
15665;SDS011;20725;51.196;3.510;2023-03-31T07:44:10;17.73;;;4.43;;
15665;SDS011;20725;51.196;3.510;2023-03-31T07:46:38;26.13;;;5.23;;
15665;SDS011;20725;51.196;3.510;2023-03-31T07:49:05;21.73;;;5.20;;
15665;SDS011;20725;51.196;3.510;2023-03-31T07:51:35;15.07;;;4.83;;
15665;SDS011;20725;51.196;3.510;2023-03-31T07:54:02;13.27;;;3.87;;
15665;SDS011;20725;51.196;3.510;2023-03-31T07:56:29;15.43;;;3.97;;
15665;SDS011;20725;51.196;3.510;2023-03-31T07:58:57;18.47;;;3.83;;
15665;SDS011;20725;51.196;3.510;2023-03-31T08:01:24;25.30;;;4.40;;
15665;SDS011;20725;51.196;3.510;2023-03-31T08:03:52;14.83;;;4.97;;
15665;SDS011;20725;51.196;3.510;2023-03-31T08:06:21;17.80;;;4.17;;
15665;SDS011;20725;51.196;3.510;2023-03-31T08:08:51;14.93;;;4.13;;
15665;SDS011;20725;51.196;3.510;2023-03-31T08:11:19;21.77;;;5.63;;
15665;SDS011;20725;51.196;3.510;2023-03-31T08:13:46;15.20;;;5.03;;
15665;SDS011;20725;51.196;3.510;2023-03-31T08:16:14;12.10;;;3.47;;
15665;SDS011;20725;51.196;3.510;2023-03-31T08:18:42;16.47;;;3.50;;
15665;SDS011;20725;51.196;3.510;2023-03-31T08:21:09;9.17;;;3.73;;
15665;SDS011;20725;51.196;3.510;2023-03-31T08:23:36;21.87;;;4.30;;
15665;SDS011;20725;51.196;3.510;2023-03-31T08:26:09;15.37;;;3.97;;
15665;SDS011;20725;51.196;3.510;2023-03-31T08:28:37;17.40;;;4.20;;
15665;SDS011;20725;51.196;3.510;2023-03-31T08:31:04;10.47;;;3.47;;
15665;SDS011;20725;51.196;3.510;2023-03-31T08:33:32;18.90;;;4.50;;
15665;SDS011;20725;51.196;3.510;2023-03-31T08:36:00;14.63;;;4.63;;
15665;SDS011;20725;51.196;3.510;2023-03-31T08:38:29;9.07;;;3.80;;
15665;SDS011;20725;51.196;3.510;2023-03-31T08:40:59;15.23;;;3.93;;
15665;SDS011;20725;51.196;3.510;2023-03-31T08:43:30;10.97;;;3.70;;
15665;SDS011;20725;51.196;3.510;2023-03-31T08:45:59;16.10;;;4.03;;
15665;SDS011;20725;51.196;3.510;2023-03-31T08:48:28;8.83;;;3.27;;
15665;SDS011;20725;51.196;3.510;2023-03-31T08:50:57;11.07;;;3.57;;
15665;SDS011;20725;51.196;3.510;2023-03-31T08:53:27;14.20;;;4.10;;
15665;SDS011;20725;51.196;3.510;2023-03-31T08:55:56;11.97;;;3.53;;
15665;SDS011;20725;51.196;3.510;2023-03-31T08:58:32;15.20;;;5.00;;
15665;SDS011;20725;51.196;3.510;2023-03-31T09:01:05;12.17;;;3.57;;
15665;SDS011;20725;51.196;3.510;2023-03-31T09:03:36;11.03;;;3.47;;
15665;SDS011;20725;51.196;3.510;2023-03-31T09:06:06;15.20;;;3.63;;
15665;SDS011;20725;51.196;3.510;2023-03-31T09:08:36;8.90;;;2.83;;
15665;SDS011;20725;51.196;3.510;2023-03-31T09:11:06;10.43;;;3.57;;
15665;SDS011;20725;51.196;3.510;2023-03-31T09:13:56;12.10;;;4.00;;
15665;SDS011;20725;51.196;3.510;2023-03-31T09:16:29;11.10;;;2.80;;
15665;SDS011;20725;51.196;3.510;2023-03-31T09:19:00;15.47;;;3.87;;
15665;SDS011;20725;51.196;3.510;2023-03-31T09:21:29;9.70;;;2.80;;
15665;SDS011;20725;51.196;3.510;2023-03-31T09:24:00;10.03;;;3.13;;
15665;SDS011;20725;51.196;3.510;2023-03-31T09:26:31;16.30;;;3.43;;
15665;SDS011;20725;51.196;3.510;2023-03-31T09:29:05;17.20;;;3.37;;
15665;SDS011;20725;51.196;3.510;2023-03-31T09:31:42;16.03;;;4.33;;
15665;SDS011;20725;51.196;3.510;2023-03-31T09:34:15;15.67;;;3.20;;
15665;SDS011;20725;51.196;3.510;2023-03-31T09:36:47;15.00;;;3.40;;
15665;SDS011;20725;51.196;3.510;2023-03-31T09:39:16;11.30;;;3.57;;
15665;SDS011;20725;51.196;3.510;2023-03-31T09:41:45;13.27;;;3.53;;
15665;SDS011;20725;51.196;3.510;2023-03-31T09:44:23;12.13;;;3.90;;
15665;SDS011;20725;51.196;3.510;2023-03-31T09:46:53;8.57;;;3.00;;
15665;SDS011;20725;51.196;3.510;2023-03-31T09:49:21;14.00;;;3.30;;
15665;SDS011;20725;51.196;3.510;2023-03-31T09:51:55;12.47;;;2.93;;
15665;SDS011;20725;51.196;3.510;2023-03-31T09:54:30;14.80;;;4.07;;
15665;SDS011;20725;51.196;3.510;2023-03-31T09:57:11;7.77;;;3.47;;
15665;SDS011;20725;51.196;3.510;2023-03-31T09:59:43;14.03;;;3.73;;
15665;SDS011;20725;51.196;3.510;2023-03-31T10:05:02;11.13;;;3.67;;
15665;SDS011;20725;51.196;3.510;2023-03-31T10:07:30;17.13;;;3.93;;
15665;SDS011;20725;51.196;3.510;2023-03-31T10:09:59;15.53;;;4.67;;
15665;SDS011;20725;51.196;3.510;2023-03-31T10:12:27;16.37;;;3.63;;
15665;SDS011;20725;51.196;3.510;2023-03-31T10:15:10;9.73;;;3.10;;
15665;SDS011;20725;51.196;3.510;2023-03-31T10:17:43;8.43;;;2.80;;
15665;SDS011;20725;51.196;3.510;2023-03-31T10:20:20;7.87;;;3.07;;
15665;SDS011;20725;51.196;3.510;2023-03-31T10:23:00;5.63;;;2.23;;
15665;SDS011;20725;51.196;3.510;2023-03-31T10:25:28;6.93;;;1.90;;
15665;SDS011;20725;51.196;3.510;2023-03-31T10:27:59;3.70;;;2.10;;
15665;SDS011;20725;51.196;3.510;2023-03-31T10:30:31;12.30;;;2.83;;
15665;SDS011;20725;51.196;3.510;2023-03-31T10:33:04;9.93;;;2.60;;
15665;SDS011;20725;51.196;3.510;2023-03-31T10:35:33;4.20;;;2.43;;
15665;SDS011;20725;51.196;3.510;2023-03-31T10:38:03;8.63;;;2.90;;
15665;SDS011;20725;51.196;3.510;2023-03-31T10:40:32;8.60;;;3.00;;
15665;SDS011;20725;51.196;3.510;2023-03-31T10:43:04;12.83;;;3.50;;
15665;SDS011;20725;51.196;3.510;2023-03-31T10:45:42;13.77;;;3.37;;
15665;SDS011;20725;51.196;3.510;2023-03-31T10:48:16;12.63;;;3.47;;
15665;SDS011;20725;51.196;3.510;2023-03-31T10:50:46;10.83;;;2.70;;
15665;SDS011;20725;51.196;3.510;2023-03-31T10:53:14;11.57;;;3.47;;
15665;SDS011;20725;51.196;3.510;2023-03-31T10:55:45;9.67;;;3.37;;
15665;SDS011;20725;51.196;3.510;2023-03-31T10:58:26;13.80;;;3.47;;
15665;SDS011;20725;51.196;3.510;2023-03-31T11:01:05;11.57;;;3.37;;
15665;SDS011;20725;51.196;3.510;2023-03-31T11:03:51;8.30;;;2.47;;
15665;SDS011;20725;51.196;3.510;2023-03-31T11:06:54;8.03;;;2.70;;
15665;SDS011;20725;51.196;3.510;2023-03-31T11:09:32;6.23;;;2.90;;
15665;SDS011;20725;51.196;3.510;2023-03-31T11:12:11;10.40;;;2.50;;
15665;SDS011;20725;51.196;3.510;2023-03-31T11:14:49;7.90;;;3.73;;
15665;SDS011;20725;51.196;3.510;2023-03-31T11:17:29;9.50;;;3.47;;
15665;SDS011;20725;51.196;3.510;2023-03-31T11:20:08;9.37;;;3.93;;
15665;SDS011;20725;51.196;3.510;2023-03-31T11:22:43;4.97;;;2.33;;
15665;SDS011;20725;51.196;3.510;2023-03-31T11:25:23;7.83;;;2.43;;
15665;SDS011;20725;51.196;3.510;2023-03-31T11:30:55;6.43;;;2.07;;
15665;SDS011;20725;51.196;3.510;2023-03-31T11:33:36;3.90;;;1.93;;
15665;SDS011;20725;51.196;3.510;2023-03-31T11:36:20;10.57;;;2.90;;
15665;SDS011;20725;51.196;3.510;2023-03-31T11:39:02;7.57;;;2.07;;
15665;SDS011;20725;51.196;3.510;2023-03-31T11:41:42;10.70;;;2.33;;
15665;SDS011;20725;51.196;3.510;2023-03-31T11:44:14;6.70;;;2.83;;
15665;SDS011;20725;51.196;3.510;2023-03-31T11:46:45;6.17;;;2.07;;
15665;SDS011;20725;51.196;3.510;2023-03-31T11:49:19;4.87;;;2.13;;
15665;SDS011;20725;51.196;3.510;2023-03-31T11:51:51;8.63;;;2.67;;
15665;SDS011;20725;51.196;3.510;2023-03-31T11:54:23;8.80;;;2.57;;
15665;SDS011;20725;51.196;3.510;2023-03-31T11:56:54;8.40;;;2.77;;
15665;SDS011;20725;51.196;3.510;2023-03-31T11:59:22;6.43;;;2.30;;
15665;SDS011;20725;51.196;3.510;2023-03-31T12:01:56;9.80;;;2.47;;
15665;SDS011;20725;51.196;3.510;2023-03-31T12:04:31;9.20;;;3.00;;
15665;SDS011;20725;51.196;3.510;2023-03-31T12:07:02;9.33;;;3.70;;
15665;SDS011;20725;51.196;3.510;2023-03-31T12:09:49;7.63;;;2.10;;
15665;SDS011;20725;51.196;3.510;2023-03-31T12:12:27;5.77;;;2.13;;
15665;SDS011;20725;51.196;3.510;2023-03-31T12:14:58;4.30;;;1.87;;
15665;SDS011;20725;51.196;3.510;2023-03-31T12:17:31;7.63;;;2.63;;
15665;SDS011;20725;51.196;3.510;2023-03-31T12:20:03;6.00;;;2.07;;
15665;SDS011;20725;51.196;3.510;2023-03-31T12:22:38;5.97;;;2.53;;
15665;SDS011;20725;51.196;3.510;2023-03-31T12:25:10;7.97;;;2.60;;
15665;SDS011;20725;51.196;3.510;2023-03-31T12:27:39;3.30;;;1.80;;
15665;SDS011;20725;51.196;3.510;2023-03-31T12:30:09;4.93;;;1.70;;
15665;SDS011;20725;51.196;3.510;2023-03-31T12:32:40;9.40;;;1.97;;
15665;SDS011;20725;51.196;3.510;2023-03-31T12:35:12;9.77;;;1.87;;
15665;SDS011;20725;51.196;3.510;2023-03-31T12:37:59;11.50;;;3.03;;
15665;SDS011;20725;51.196;3.510;2023-03-31T12:40:43;3.10;;;1.77;;
15665;SDS011;20725;51.196;3.510;2023-03-31T12:43:22;5.20;;;2.23;;
15665;SDS011;20725;51.196;3.510;2023-03-31T12:46:09;6.57;;;1.80;;
15665;SDS011;20725;51.196;3.510;2023-03-31T12:48:57;7.23;;;2.40;;
15665;SDS011;20725;51.196;3.510;2023-03-31T12:52:01;5.10;;;1.97;;
15665;SDS011;20725;51.196;3.510;2023-03-31T12:54:35;10.40;;;2.20;;
15665;SDS011;20725;51.196;3.510;2023-03-31T12:57:23;5.00;;;2.50;;
15665;SDS011;20725;51.196;3.510;2023-03-31T13:02:45;6.50;;;2.37;;
15665;SDS011;20725;51.196;3.510;2023-03-31T13:11:22;5.77;;;1.90;;
15665;SDS011;20725;51.196;3.510;2023-03-31T13:14:03;9.87;;;1.97;;
15665;SDS011;20725;51.196;3.510;2023-03-31T13:16:33;9.53;;;2.33;;
15665;SDS011;20725;51.196;3.510;2023-03-31T13:19:01;7.23;;;2.17;;
15665;SDS011;20725;51.196;3.510;2023-03-31T13:21:30;11.37;;;3.17;;
15665;SDS011;20725;51.196;3.510;2023-03-31T13:24:19;7.67;;;2.40;;
15665;SDS011;20725;51.196;3.510;2023-03-31T13:26:47;9.80;;;1.90;;
15665;SDS011;20725;51.196;3.510;2023-03-31T13:32:06;8.13;;;3.00;;
15665;SDS011;20725;51.196;3.510;2023-03-31T13:34:44;8.50;;;2.60;;
15665;SDS011;20725;51.196;3.510;2023-03-31T13:37:18;12.27;;;1.83;;
15665;SDS011;20725;51.196;3.510;2023-03-31T13:40:06;11.07;;;2.43;;
15665;SDS011;20725;51.196;3.510;2023-03-31T13:42:59;7.40;;;2.83;;
15665;SDS011;20725;51.196;3.510;2023-03-31T13:45:56;11.93;;;2.80;;
15665;SDS011;20725;51.196;3.510;2023-03-31T13:48:37;11.13;;;3.07;;
15665;SDS011;20725;51.196;3.510;2023-03-31T13:54:13;7.07;;;2.13;;
15665;SDS011;20725;51.196;3.510;2023-03-31T13:57:01;4.57;;;2.30;;
15665;SDS011;20725;51.196;3.510;2023-03-31T13:59:36;5.60;;;2.27;;
15665;SDS011;20725;51.196;3.510;2023-03-31T14:05:07;8.53;;;2.53;;
15665;SDS011;20725;51.196;3.510;2023-03-31T14:07:52;8.33;;;2.43;;
15665;SDS011;20725;51.196;3.510;2023-03-31T14:10:23;5.30;;;2.33;;
15665;SDS011;20725;51.196;3.510;2023-03-31T14:13:04;7.07;;;2.60;;
15665;SDS011;20725;51.196;3.510;2023-03-31T14:15:32;6.23;;;2.50;;
15665;SDS011;20725;51.196;3.510;2023-03-31T14:18:01;8.67;;;2.60;;
15665;SDS011;20725;51.196;3.510;2023-03-31T14:20:34;11.83;;;3.00;;
15665;SDS011;20725;51.196;3.510;2023-03-31T14:23:24;6.50;;;2.10;;
15665;SDS011;20725;51.196;3.510;2023-03-31T14:25:56;6.13;;;2.03;;
15665;SDS011;20725;51.196;3.510;2023-03-31T14:28:31;9.20;;;3.10;;
15665;SDS011;20725;51.196;3.510;2023-03-31T14:31:06;5.87;;;2.00;;
15665;SDS011;20725;51.196;3.510;2023-03-31T14:33:41;6.17;;;2.73;;
15665;SDS011;20725;51.196;3.510;2023-03-31T14:36:15;10.70;;;2.70;;
15665;SDS011;20725;51.196;3.510;2023-03-31T14:38:52;10.67;;;2.90;;
15665;SDS011;20725;51.196;3.510;2023-03-31T14:41:20;11.40;;;2.93;;
15665;SDS011;20725;51.196;3.510;2023-03-31T14:43:56;12.20;;;2.87;;
15665;SDS011;20725;51.196;3.510;2023-03-31T14:46:28;6.00;;;2.10;;
15665;SDS011;20725;51.196;3.510;2023-03-31T14:48:57;5.47;;;2.07;;
15665;SDS011;20725;51.196;3.510;2023-03-31T14:51:25;4.57;;;2.13;;
15665;SDS011;20725;51.196;3.510;2023-03-31T14:53:57;6.17;;;2.20;;
15665;SDS011;20725;51.196;3.510;2023-03-31T14:56:28;5.60;;;2.63;;
15665;SDS011;20725;51.196;3.510;2023-03-31T14:59:02;5.20;;;2.47;;
15665;SDS011;20725;51.196;3.510;2023-03-31T15:01:32;6.87;;;2.10;;
15665;SDS011;20725;51.196;3.510;2023-03-31T15:04:03;7.57;;;2.70;;
15665;SDS011;20725;51.196;3.510;2023-03-31T15:06:32;7.13;;;2.40;;
15665;SDS011;20725;51.196;3.510;2023-03-31T15:09:00;7.13;;;2.70;;
15665;SDS011;20725;51.196;3.510;2023-03-31T15:11:29;12.77;;;3.43;;
15665;SDS011;20725;51.196;3.510;2023-03-31T15:13:57;17.07;;;3.70;;
15665;SDS011;20725;51.196;3.510;2023-03-31T15:16:29;15.87;;;3.80;;
15665;SDS011;20725;51.196;3.510;2023-03-31T15:18:58;17.13;;;4.47;;
15665;SDS011;20725;51.196;3.510;2023-03-31T15:21:27;19.43;;;4.10;;
15665;SDS011;20725;51.196;3.510;2023-03-31T15:24:02;15.00;;;3.20;;
15665;SDS011;20725;51.196;3.510;2023-03-31T15:26:30;12.60;;;3.43;;
15665;SDS011;20725;51.196;3.510;2023-03-31T15:29:02;15.67;;;3.87;;
15665;SDS011;20725;51.196;3.510;2023-03-31T15:31:34;22.87;;;4.37;;
15665;SDS011;20725;51.196;3.510;2023-03-31T15:34:10;30.10;;;6.30;;
15665;SDS011;20725;51.196;3.510;2023-03-31T15:36:44;17.40;;;4.40;;
15665;SDS011;20725;51.196;3.510;2023-03-31T15:39:11;14.40;;;4.17;;
15665;SDS011;20725;51.196;3.510;2023-03-31T15:41:40;21.73;;;4.93;;
15665;SDS011;20725;51.196;3.510;2023-03-31T15:44:27;23.27;;;4.70;;
15665;SDS011;20725;51.196;3.510;2023-03-31T15:47:04;14.23;;;3.50;;
15665;SDS011;20725;51.196;3.510;2023-03-31T15:49:33;29.60;;;4.70;;